sensor_id;sensor_type;location;lat;lon;timestamp;temperature;humidity
72326;DHT22;60278;47.980;18.780;2022-10-31T00:01:27;11.31;99.99
72326;DHT22;60278;47.980;18.780;2022-10-31T00:04:58;11.31;99.99
72326;DHT22;60278;47.980;18.780;2022-10-31T00:08:29;11.33;99.99
72326;DHT22;60278;47.980;18.780;2022-10-31T00:12:00;11.31;99.99
72326;DHT22;60278;47.980;18.780;2022-10-31T00:15:38;11.25;99.99
72326;DHT22;60278;47.980;18.780;2022-10-31T00:19:10;11.12;99.99
72326;DHT22;60278;47.980;18.780;2022-10-31T00:22:41;11.23;99.99
72326;DHT22;60278;47.980;18.780;2022-10-31T00:26:12;11.28;99.99
72326;DHT22;60278;47.980;18.780;2022-10-31T00:29:43;11.23;99.99
72326;DHT22;60278;47.980;18.780;2022-10-31T00:33:14;11.21;99.99
72326;DHT22;60278;47.980;18.780;2022-10-31T00:36:45;11.38;99.99
72326;DHT22;60278;47.980;18.780;2022-10-31T00:40:18;11.55;99.99
72326;DHT22;60278;47.980;18.780;2022-10-31T00:43:48;11.60;99.99
72326;DHT22;60278;47.980;18.780;2022-10-31T00:47:20;11.51;99.99
72326;DHT22;60278;47.980;18.780;2022-10-31T00:50:51;11.38;99.99
72326;DHT22;60278;47.980;18.780;2022-10-31T00:54:22;11.52;99.99
72326;DHT22;60278;47.980;18.780;2022-10-31T00:57:54;11.58;99.99
72326;DHT22;60278;47.980;18.780;2022-10-31T01:01:25;11.55;99.99
72326;DHT22;60278;47.980;18.780;2022-10-31T01:04:56;11.53;99.99
72326;DHT22;60278;47.980;18.780;2022-10-31T01:08:27;11.49;99.99
72326;DHT22;60278;47.980;18.780;2022-10-31T01:11:59;11.47;99.99
72326;DHT22;60278;47.980;18.780;2022-10-31T01:15:30;11.53;99.99
72326;DHT22;60278;47.980;18.780;2022-10-31T01:19:01;11.31;99.99
72326;DHT22;60278;47.980;18.780;2022-10-31T01:22:32;11.23;99.99
72326;DHT22;60278;47.980;18.780;2022-10-31T01:29:43;11.28;99.99
72326;DHT22;60278;47.980;18.780;2022-10-31T01:33:14;11.43;99.99
72326;DHT22;60278;47.980;18.780;2022-10-31T01:36:46;11.39;99.99
72326;DHT22;60278;47.980;18.780;2022-10-31T01:40:21;11.28;99.99
72326;DHT22;60278;47.980;18.780;2022-10-31T01:43:55;11.31;99.99
72326;DHT22;60278;47.980;18.780;2022-10-31T01:47:38;11.23;99.99
72326;DHT22;60278;47.980;18.780;2022-10-31T01:51:13;11.16;99.99
72326;DHT22;60278;47.980;18.780;2022-10-31T01:54:58;11.19;99.99
72326;DHT22;60278;47.980;18.780;2022-10-31T01:58:31;11.19;99.99
72326;DHT22;60278;47.980;18.780;2022-10-31T02:02:02;11.32;99.99
72326;DHT22;60278;47.980;18.780;2022-10-31T02:05:33;11.25;99.99
72326;DHT22;60278;47.980;18.780;2022-10-31T02:09:05;11.11;99.99
72326;DHT22;60278;47.980;18.780;2022-10-31T02:12:37;11.10;99.99
72326;DHT22;60278;47.980;18.780;2022-10-31T02:16:09;11.10;99.99
72326;DHT22;60278;47.980;18.780;2022-10-31T02:23:41;11.11;99.99
72326;DHT22;60278;47.980;18.780;2022-10-31T02:27:37;11.08;99.99
72326;DHT22;60278;47.980;18.780;2022-10-31T02:38:49;11.11;99.99
72326;DHT22;60278;47.980;18.780;2022-10-31T02:42:59;11.26;99.99
72326;DHT22;60278;47.980;18.780;2022-10-31T02:50:32;11.29;99.99
72326;DHT22;60278;47.980;18.780;2022-10-31T02:54:05;11.25;99.99
72326;DHT22;60278;47.980;18.780;2022-10-31T02:57:36;11.19;99.99
72326;DHT22;60278;47.980;18.780;2022-10-31T03:09:11;11.18;99.99
72326;DHT22;60278;47.980;18.780;2022-10-31T03:16:29;11.14;99.99
72326;DHT22;60278;47.980;18.780;2022-10-31T03:20:08;11.22;99.99
72326;DHT22;60278;47.980;18.780;2022-10-31T03:23:43;11.08;99.99
72326;DHT22;60278;47.980;18.780;2022-10-31T03:27:27;11.10;99.99
72326;DHT22;60278;47.980;18.780;2022-10-31T03:31:01;11.10;99.99
72326;DHT22;60278;47.980;18.780;2022-10-31T03:34:36;11.11;99.99
72326;DHT22;60278;47.980;18.780;2022-10-31T03:38:08;11.08;99.99
72326;DHT22;60278;47.980;18.780;2022-10-31T03:41:44;11.11;99.99
72326;DHT22;60278;47.980;18.780;2022-10-31T03:45:29;11.14;99.99
72326;DHT22;60278;47.980;18.780;2022-10-31T03:49:01;11.10;99.99
72326;DHT22;60278;47.980;18.780;2022-10-31T03:52:43;11.08;99.99
72326;DHT22;60278;47.980;18.780;2022-10-31T03:56:23;11.04;99.99
72326;DHT22;60278;47.980;18.780;2022-10-31T04:00:04;11.01;99.99
72326;DHT22;60278;47.980;18.780;2022-10-31T04:03:37;11.05;99.99
72326;DHT22;60278;47.980;18.780;2022-10-31T04:07:10;10.97;99.99
72326;DHT22;60278;47.980;18.780;2022-10-31T04:10:45;10.91;99.99
72326;DHT22;60278;47.980;18.780;2022-10-31T04:14:18;10.87;99.99
72326;DHT22;60278;47.980;18.780;2022-10-31T04:17:52;10.91;99.99
72326;DHT22;60278;47.980;18.780;2022-10-31T04:21:28;10.88;99.99
72326;DHT22;60278;47.980;18.780;2022-10-31T04:25:02;10.91;99.99
72326;DHT22;60278;47.980;18.780;2022-10-31T04:28:33;10.90;99.99
72326;DHT22;60278;47.980;18.780;2022-10-31T04:32:04;10.88;99.99
72326;DHT22;60278;47.980;18.780;2022-10-31T04:35:35;10.85;99.99
72326;DHT22;60278;47.980;18.780;2022-10-31T04:39:06;10.87;99.99
72326;DHT22;60278;47.980;18.780;2022-10-31T04:42:50;10.92;99.99
72326;DHT22;60278;47.980;18.780;2022-10-31T04:46:21;10.98;99.94
72326;DHT22;60278;47.980;18.780;2022-10-31T04:49:52;10.91;99.99
72326;DHT22;60278;47.980;18.780;2022-10-31T04:53:23;10.80;99.99
72326;DHT22;60278;47.980;18.780;2022-10-31T04:57:20;10.82;99.99
72326;DHT22;60278;47.980;18.780;2022-10-31T05:00:53;10.94;99.99
72326;DHT22;60278;47.980;18.780;2022-10-31T05:04:25;10.94;99.99
72326;DHT22;60278;47.980;18.780;2022-10-31T05:07:56;10.90;99.99
72326;DHT22;60278;47.980;18.780;2022-10-31T05:11:29;10.75;99.99
72326;DHT22;60278;47.980;18.780;2022-10-31T05:15:07;10.92;99.99
72326;DHT22;60278;47.980;18.780;2022-10-31T05:19:13;10.85;99.99
72326;DHT22;60278;47.980;18.780;2022-10-31T05:23:03;10.88;99.99
72326;DHT22;60278;47.980;18.780;2022-10-31T05:26:34;10.78;99.99
72326;DHT22;60278;47.980;18.780;2022-10-31T05:30:06;10.88;99.99
72326;DHT22;60278;47.980;18.780;2022-10-31T05:33:37;10.81;99.99
72326;DHT22;60278;47.980;18.780;2022-10-31T05:37:27;10.85;99.99
72326;DHT22;60278;47.980;18.780;2022-10-31T05:40:58;10.84;99.99
72326;DHT22;60278;47.980;18.780;2022-10-31T05:44:30;10.75;99.99
72326;DHT22;60278;47.980;18.780;2022-10-31T05:48:22;10.77;99.99
72326;DHT22;60278;47.980;18.780;2022-10-31T05:52:19;10.78;99.99
72326;DHT22;60278;47.980;18.780;2022-10-31T05:55:58;10.82;99.99
72326;DHT22;60278;47.980;18.780;2022-10-31T05:59:30;10.82;99.99
72326;DHT22;60278;47.980;18.780;2022-10-31T06:03:04;10.82;99.99
72326;DHT22;60278;47.980;18.780;2022-10-31T06:06:46;10.74;99.99
72326;DHT22;60278;47.980;18.780;2022-10-31T06:10:17;10.70;99.99
72326;DHT22;60278;47.980;18.780;2022-10-31T06:13:53;10.82;99.99
72326;DHT22;60278;47.980;18.780;2022-10-31T06:17:28;10.82;99.99
72326;DHT22;60278;47.980;18.780;2022-10-31T06:21:22;10.87;99.99
72326;DHT22;60278;47.980;18.780;2022-10-31T06:24:55;10.94;99.99
72326;DHT22;60278;47.980;18.780;2022-10-31T06:28:32;10.90;99.99
72326;DHT22;60278;47.980;18.780;2022-10-31T06:32:17;11.10;99.99
72326;DHT22;60278;47.980;18.780;2022-10-31T06:35:49;11.07;99.99
72326;DHT22;60278;47.980;18.780;2022-10-31T06:39:22;11.00;99.99
72326;DHT22;60278;47.980;18.780;2022-10-31T06:43:00;11.16;99.99
72326;DHT22;60278;47.980;18.780;2022-10-31T06:46:31;11.25;99.99
72326;DHT22;60278;47.980;18.780;2022-10-31T06:50:18;11.25;99.91
72326;DHT22;60278;47.980;18.780;2022-10-31T06:53:51;11.36;99.99
72326;DHT22;60278;47.980;18.780;2022-10-31T06:57:23;11.19;99.99
72326;DHT22;60278;47.980;18.780;2022-10-31T07:00:54;11.16;99.99
72326;DHT22;60278;47.980;18.780;2022-10-31T07:04:25;11.18;99.99
72326;DHT22;60278;47.980;18.780;2022-10-31T07:08:01;11.19;99.99
72326;DHT22;60278;47.980;18.780;2022-10-31T07:11:33;11.12;99.99
72326;DHT22;60278;47.980;18.780;2022-10-31T07:15:05;11.16;99.99
72326;DHT22;60278;47.980;18.780;2022-10-31T07:18:37;11.31;99.99
72326;DHT22;60278;47.980;18.780;2022-10-31T07:22:08;11.39;99.99
72326;DHT22;60278;47.980;18.780;2022-10-31T07:25:41;11.46;99.99
72326;DHT22;60278;47.980;18.780;2022-10-31T07:29:23;11.39;99.99
72326;DHT22;60278;47.980;18.780;2022-10-31T07:32:54;11.26;99.99
72326;DHT22;60278;47.980;18.780;2022-10-31T07:36:26;11.19;99.99
72326;DHT22;60278;47.980;18.780;2022-10-31T07:40:02;11.22;99.99
72326;DHT22;60278;47.980;18.780;2022-10-31T07:43:35;11.31;99.99
72326;DHT22;60278;47.980;18.780;2022-10-31T07:47:29;11.32;99.68
72326;DHT22;60278;47.980;18.780;2022-10-31T07:51:26;11.23;99.99
72326;DHT22;60278;47.980;18.780;2022-10-31T07:55:18;11.51;98.68
72326;DHT22;60278;47.980;18.780;2022-10-31T07:58:52;11.49;99.82
72326;DHT22;60278;47.980;18.780;2022-10-31T08:02:23;11.49;99.19
72326;DHT22;60278;47.980;18.780;2022-10-31T08:05:56;11.47;98.83
72326;DHT22;60278;47.980;18.780;2022-10-31T08:09:50;11.60;98.54
72326;DHT22;60278;47.980;18.780;2022-10-31T08:13:27;11.60;98.17
72326;DHT22;60278;47.980;18.780;2022-10-31T08:16:58;11.56;98.47
72326;DHT22;60278;47.980;18.780;2022-10-31T08:20:37;11.56;98.63
72326;DHT22;60278;47.980;18.780;2022-10-31T08:24:08;11.32;99.38
72326;DHT22;60278;47.980;18.780;2022-10-31T08:27:39;11.56;98.84
72326;DHT22;60278;47.980;18.780;2022-10-31T08:31:10;11.63;98.90
72326;DHT22;60278;47.980;18.780;2022-10-31T08:34:44;11.73;98.32
72326;DHT22;60278;47.980;18.780;2022-10-31T08:38:33;11.47;99.77
72326;DHT22;60278;47.980;18.780;2022-10-31T08:42:05;11.69;99.66
72326;DHT22;60278;47.980;18.780;2022-10-31T08:45:37;11.79;98.01
72326;DHT22;60278;47.980;18.780;2022-10-31T08:49:10;11.97;97.49
72326;DHT22;60278;47.980;18.780;2022-10-31T08:52:41;12.01;97.56
72326;DHT22;60278;47.980;18.780;2022-10-31T08:56:12;11.91;97.40
72326;DHT22;60278;47.980;18.780;2022-10-31T08:59:43;12.04;97.11
72326;DHT22;60278;47.980;18.780;2022-10-31T09:03:28;12.07;97.85
72326;DHT22;60278;47.980;18.780;2022-10-31T09:06:59;12.17;97.54
72326;DHT22;60278;47.980;18.780;2022-10-31T09:10:31;11.95;97.15
72326;DHT22;60278;47.980;18.780;2022-10-31T09:14:03;11.97;97.36
72326;DHT22;60278;47.980;18.780;2022-10-31T09:17:49;12.10;96.23
72326;DHT22;60278;47.980;18.780;2022-10-31T09:21:32;12.10;96.71
72326;DHT22;60278;47.980;18.780;2022-10-31T09:25:03;12.28;96.54
72326;DHT22;60278;47.980;18.780;2022-10-31T09:28:34;12.42;95.46
72326;DHT22;60278;47.980;18.780;2022-10-31T09:32:17;12.49;95.74
72326;DHT22;60278;47.980;18.780;2022-10-31T09:35:50;12.38;96.93
72326;DHT22;60278;47.980;18.780;2022-10-31T09:39:21;12.16;96.74
72326;DHT22;60278;47.980;18.780;2022-10-31T09:43:14;12.34;97.27
72326;DHT22;60278;47.980;18.780;2022-10-31T09:50:32;12.56;96.64
72326;DHT22;60278;47.980;18.780;2022-10-31T09:54:28;12.42;96.63
72326;DHT22;60278;47.980;18.780;2022-10-31T09:58:01;12.32;96.63
72326;DHT22;60278;47.980;18.780;2022-10-31T10:05:10;12.44;96.44
72326;DHT22;60278;47.980;18.780;2022-10-31T10:08:45;12.31;96.39
72326;DHT22;60278;47.980;18.780;2022-10-31T10:13:12;12.52;95.95
72326;DHT22;60278;47.980;18.780;2022-10-31T10:17:04;12.65;96.05
72326;DHT22;60278;47.980;18.780;2022-10-31T10:28:31;12.66;95.59
72326;DHT22;60278;47.980;18.780;2022-10-31T10:32:25;12.63;96.80
72326;DHT22;60278;47.980;18.780;2022-10-31T10:40:22;12.52;96.56
72326;DHT22;60278;47.980;18.780;2022-10-31T10:43:54;12.53;96.38
72326;DHT22;60278;47.980;18.780;2022-10-31T10:47:28;12.61;96.95
72326;DHT22;60278;47.980;18.780;2022-10-31T10:51:33;12.53;97.24
72326;DHT22;60278;47.980;18.780;2022-10-31T10:55:22;12.69;96.99
72326;DHT22;60278;47.980;18.780;2022-10-31T10:58:55;12.58;97.03
72326;DHT22;60278;47.980;18.780;2022-10-31T11:02:30;12.79;97.51
72326;DHT22;60278;47.980;18.780;2022-10-31T11:06:02;12.69;97.43
72326;DHT22;60278;47.980;18.780;2022-10-31T11:09:34;12.65;97.48
72326;DHT22;60278;47.980;18.780;2022-10-31T11:16:42;12.78;97.36
72326;DHT22;60278;47.980;18.780;2022-10-31T11:23:44;12.76;97.61
72326;DHT22;60278;47.980;18.780;2022-10-31T11:27:20;12.73;97.11
72326;DHT22;60278;47.980;18.780;2022-10-31T11:30:57;12.82;98.24
72326;DHT22;60278;47.980;18.780;2022-10-31T11:38:04;12.76;97.78
72326;DHT22;60278;47.980;18.780;2022-10-31T11:41:37;12.73;98.16
72326;DHT22;60278;47.980;18.780;2022-10-31T11:45:33;12.73;98.26
72326;DHT22;60278;47.980;18.780;2022-10-31T11:49:13;12.86;97.87
72326;DHT22;60278;47.980;18.780;2022-10-31T11:52:46;12.71;98.56
72326;DHT22;60278;47.980;18.780;2022-10-31T11:56:17;12.61;98.33
72326;DHT22;60278;47.980;18.780;2022-10-31T11:59:57;12.63;98.50
72326;DHT22;60278;47.980;18.780;2022-10-31T12:07:02;12.71;98.58
72326;DHT22;60278;47.980;18.780;2022-10-31T12:14:49;12.66;98.81
72326;DHT22;60278;47.980;18.780;2022-10-31T12:18:59;12.81;98.71
72326;DHT22;60278;47.980;18.780;2022-10-31T12:30:40;12.86;98.12
72326;DHT22;60278;47.980;18.780;2022-10-31T12:42:37;12.85;98.11
72326;DHT22;60278;47.980;18.780;2022-10-31T12:50:13;13.00;98.41
72326;DHT22;60278;47.980;18.780;2022-10-31T12:57:42;13.02;96.66
72326;DHT22;60278;47.980;18.780;2022-10-31T13:01:32;13.12;96.58
72326;DHT22;60278;47.980;18.780;2022-10-31T13:08:54;12.75;97.94
72326;DHT22;60278;47.980;18.780;2022-10-31T13:12:29;12.91;97.74
72326;DHT22;60278;47.980;18.780;2022-10-31T13:16:10;13.03;97.35
72326;DHT22;60278;47.980;18.780;2022-10-31T13:19:43;12.76;98.37
72326;DHT22;60278;47.980;18.780;2022-10-31T13:23:51;12.76;98.65
72326;DHT22;60278;47.980;18.780;2022-10-31T13:27:47;12.81;98.27
72326;DHT22;60278;47.980;18.780;2022-10-31T13:31:20;13.03;97.72
72326;DHT22;60278;47.980;18.780;2022-10-31T13:34:56;12.86;98.63
72326;DHT22;60278;47.980;18.780;2022-10-31T13:39:11;12.71;98.83
72326;DHT22;60278;47.980;18.780;2022-10-31T13:50:21;12.92;98.25
72326;DHT22;60278;47.980;18.780;2022-10-31T13:57:32;12.68;98.51
72326;DHT22;60278;47.980;18.780;2022-10-31T14:04:53;12.78;98.96
72326;DHT22;60278;47.980;18.780;2022-10-31T14:08:27;12.76;98.77
72326;DHT22;60278;47.980;18.780;2022-10-31T14:12:47;12.71;99.01
72326;DHT22;60278;47.980;18.780;2022-10-31T14:15:58;12.65;99.48
72326;DHT22;60278;47.980;18.780;2022-10-31T14:19:30;12.66;99.27
72326;DHT22;60278;47.980;18.780;2022-10-31T14:30:56;12.59;99.60
72326;DHT22;60278;47.980;18.780;2022-10-31T14:34:32;12.68;99.31
72326;DHT22;60278;47.980;18.780;2022-10-31T14:42:08;12.53;99.98
72326;DHT22;60278;47.980;18.780;2022-10-31T14:46:29;12.52;99.99
72326;DHT22;60278;47.980;18.780;2022-10-31T14:50:47;12.42;99.99
72326;DHT22;60278;47.980;18.780;2022-10-31T14:58:04;12.44;99.99
72326;DHT22;60278;47.980;18.780;2022-10-31T15:01:38;12.38;99.99
72326;DHT22;60278;47.980;18.780;2022-10-31T15:05:12;12.37;99.99
72326;DHT22;60278;47.980;18.780;2022-10-31T15:08:46;12.44;99.99
72326;DHT22;60278;47.980;18.780;2022-10-31T15:12:31;12.35;99.99
72326;DHT22;60278;47.980;18.780;2022-10-31T15:16:07;12.40;99.99
72326;DHT22;60278;47.980;18.780;2022-10-31T15:19:40;12.40;99.99
72326;DHT22;60278;47.980;18.780;2022-10-31T15:23:28;12.40;99.99
72326;DHT22;60278;47.980;18.780;2022-10-31T15:27:00;12.40;99.99
72326;DHT22;60278;47.980;18.780;2022-10-31T15:30:31;12.37;99.99
72326;DHT22;60278;47.980;18.780;2022-10-31T15:34:07;12.51;99.99
72326;DHT22;60278;47.980;18.780;2022-10-31T15:37:43;12.55;99.83
72326;DHT22;60278;47.980;18.780;2022-10-31T15:41:26;12.45;99.99
72326;DHT22;60278;47.980;18.780;2022-10-31T15:45:02;12.34;99.99
72326;DHT22;60278;47.980;18.780;2022-10-31T15:48:34;12.22;99.99
72326;DHT22;60278;47.980;18.780;2022-10-31T15:52:30;12.35;99.99
72326;DHT22;60278;47.980;18.780;2022-10-31T15:56:07;12.34;99.99
72326;DHT22;60278;47.980;18.780;2022-10-31T15:59:42;12.27;99.99
72326;DHT22;60278;47.980;18.780;2022-10-31T16:06:58;12.18;99.99
72326;DHT22;60278;47.980;18.780;2022-10-31T16:10:33;12.22;99.99
72326;DHT22;60278;47.980;18.780;2022-10-31T16:17:44;12.21;99.99
72326;DHT22;60278;47.980;18.780;2022-10-31T16:21:23;12.22;99.99
72326;DHT22;60278;47.980;18.780;2022-10-31T16:25:03;12.17;99.99
72326;DHT22;60278;47.980;18.780;2022-10-31T16:28:36;12.17;99.99
72326;DHT22;60278;47.980;18.780;2022-10-31T16:39:58;12.17;99.99
72326;DHT22;60278;47.980;18.780;2022-10-31T16:43:29;12.14;99.99
72326;DHT22;60278;47.980;18.780;2022-10-31T16:47:09;12.17;99.99
72326;DHT22;60278;47.980;18.780;2022-10-31T16:50:43;12.13;99.99
72326;DHT22;60278;47.980;18.780;2022-10-31T16:54:14;12.14;99.99
72326;DHT22;60278;47.980;18.780;2022-10-31T16:57:50;12.13;99.99
72326;DHT22;60278;47.980;18.780;2022-10-31T17:01:22;12.18;99.99
72326;DHT22;60278;47.980;18.780;2022-10-31T17:04:53;12.20;99.99
72326;DHT22;60278;47.980;18.780;2022-10-31T17:08:24;12.18;99.99
72326;DHT22;60278;47.980;18.780;2022-10-31T17:11:55;12.13;99.99
72326;DHT22;60278;47.980;18.780;2022-10-31T17:15:27;12.13;99.99
72326;DHT22;60278;47.980;18.780;2022-10-31T17:18:59;12.14;99.99
72326;DHT22;60278;47.980;18.780;2022-10-31T17:22:30;12.11;99.99
72326;DHT22;60278;47.980;18.780;2022-10-31T17:26:01;12.10;99.99
72326;DHT22;60278;47.980;18.780;2022-10-31T17:29:32;12.04;99.99
72326;DHT22;60278;47.980;18.780;2022-10-31T17:33:03;12.11;99.99
72326;DHT22;60278;47.980;18.780;2022-10-31T17:36:34;12.11;99.99
72326;DHT22;60278;47.980;18.780;2022-10-31T17:40:06;12.08;99.99
72326;DHT22;60278;47.980;18.780;2022-10-31T17:43:37;12.11;99.99
72326;DHT22;60278;47.980;18.780;2022-10-31T17:47:08;12.11;99.99
72326;DHT22;60278;47.980;18.780;2022-10-31T17:50:39;12.11;99.99
72326;DHT22;60278;47.980;18.780;2022-10-31T17:54:10;12.03;99.99
72326;DHT22;60278;47.980;18.780;2022-10-31T17:57:41;12.07;99.99
72326;DHT22;60278;47.980;18.780;2022-10-31T18:01:17;12.11;99.99
72326;DHT22;60278;47.980;18.780;2022-10-31T18:04:49;12.07;99.99
72326;DHT22;60278;47.980;18.780;2022-10-31T18:08:24;12.13;99.99
72326;DHT22;60278;47.980;18.780;2022-10-31T18:11:55;12.10;99.99
72326;DHT22;60278;47.980;18.780;2022-10-31T18:15:26;12.11;99.99
72326;DHT22;60278;47.980;18.780;2022-10-31T18:18:57;12.08;99.99
72326;DHT22;60278;47.980;18.780;2022-10-31T18:22:29;12.10;99.99
72326;DHT22;60278;47.980;18.780;2022-10-31T18:26:00;12.10;99.99
72326;DHT22;60278;47.980;18.780;2022-10-31T18:29:31;12.11;99.99
72326;DHT22;60278;47.980;18.780;2022-10-31T18:33:02;12.07;99.99
72326;DHT22;60278;47.980;18.780;2022-10-31T18:36:33;12.11;99.99
72326;DHT22;60278;47.980;18.780;2022-10-31T18:40:04;12.08;99.99
72326;DHT22;60278;47.980;18.780;2022-10-31T18:43:36;12.05;99.99
72326;DHT22;60278;47.980;18.780;2022-10-31T18:47:07;12.03;99.99
72326;DHT22;60278;47.980;18.780;2022-10-31T18:50:39;12.04;99.99
72326;DHT22;60278;47.980;18.780;2022-10-31T18:54:10;12.01;99.99
72326;DHT22;60278;47.980;18.780;2022-10-31T18:57:42;12.03;99.99
72326;DHT22;60278;47.980;18.780;2022-10-31T19:01:13;12.04;99.99
72326;DHT22;60278;47.980;18.780;2022-10-31T19:04:45;12.03;99.99
72326;DHT22;60278;47.980;18.780;2022-10-31T19:08:16;11.97;99.99
72326;DHT22;60278;47.980;18.780;2022-10-31T19:11:47;12.11;99.99
72326;DHT22;60278;47.980;18.780;2022-10-31T19:15:18;12.05;99.99
72326;DHT22;60278;47.980;18.780;2022-10-31T19:18:52;12.03;99.99
72326;DHT22;60278;47.980;18.780;2022-10-31T19:22:24;12.01;99.99
72326;DHT22;60278;47.980;18.780;2022-10-31T19:25:57;12.05;99.99
72326;DHT22;60278;47.980;18.780;2022-10-31T19:29:29;11.98;99.99
72326;DHT22;60278;47.980;18.780;2022-10-31T19:33:00;11.97;99.99
72326;DHT22;60278;47.980;18.780;2022-10-31T19:36:31;11.94;99.99
72326;DHT22;60278;47.980;18.780;2022-10-31T19:40:04;11.98;99.99
72326;DHT22;60278;47.980;18.780;2022-10-31T19:43:35;12.00;99.99
72326;DHT22;60278;47.980;18.780;2022-10-31T19:47:06;12.01;99.99
72326;DHT22;60278;47.980;18.780;2022-10-31T19:50:37;12.01;99.99
72326;DHT22;60278;47.980;18.780;2022-10-31T19:54:09;12.00;99.99
72326;DHT22;60278;47.980;18.780;2022-10-31T19:57:40;12.00;99.99
72326;DHT22;60278;47.980;18.780;2022-10-31T20:01:15;11.97;99.99
72326;DHT22;60278;47.980;18.780;2022-10-31T20:04:46;11.98;99.99
72326;DHT22;60278;47.980;18.780;2022-10-31T20:08:19;12.03;99.99
72326;DHT22;60278;47.980;18.780;2022-10-31T20:11:50;11.95;99.99
72326;DHT22;60278;47.980;18.780;2022-10-31T20:15:21;11.95;99.99
72326;DHT22;60278;47.980;18.780;2022-10-31T20:18:53;11.98;99.99
72326;DHT22;60278;47.980;18.780;2022-10-31T20:22:24;11.94;99.99
72326;DHT22;60278;47.980;18.780;2022-10-31T20:25:55;11.97;99.99
72326;DHT22;60278;47.980;18.780;2022-10-31T20:29:26;11.90;99.99
72326;DHT22;60278;47.980;18.780;2022-10-31T20:32:57;11.97;99.99
72326;DHT22;60278;47.980;18.780;2022-10-31T20:36:28;11.97;99.99
72326;DHT22;60278;47.980;18.780;2022-10-31T20:40:00;11.97;99.99
72326;DHT22;60278;47.980;18.780;2022-10-31T20:43:32;11.89;99.99
72326;DHT22;60278;47.980;18.780;2022-10-31T20:47:03;11.87;99.99
72326;DHT22;60278;47.980;18.780;2022-10-31T20:50:37;11.91;99.99
72326;DHT22;60278;47.980;18.780;2022-10-31T20:54:11;11.93;99.99
72326;DHT22;60278;47.980;18.780;2022-10-31T20:57:42;11.87;99.99
72326;DHT22;60278;47.980;18.780;2022-10-31T21:01:20;11.86;99.99
72326;DHT22;60278;47.980;18.780;2022-10-31T21:04:51;11.89;99.99
72326;DHT22;60278;47.980;18.780;2022-10-31T21:08:23;11.94;99.99
72326;DHT22;60278;47.980;18.780;2022-10-31T21:11:54;11.90;99.99
72326;DHT22;60278;47.980;18.780;2022-10-31T21:15:26;11.89;99.99
72326;DHT22;60278;47.980;18.780;2022-10-31T21:18:59;11.87;99.99
72326;DHT22;60278;47.980;18.780;2022-10-31T21:22:30;11.87;99.99
72326;DHT22;60278;47.980;18.780;2022-10-31T21:26:11;11.84;99.99
72326;DHT22;60278;47.980;18.780;2022-10-31T21:29:42;11.89;99.99
72326;DHT22;60278;47.980;18.780;2022-10-31T21:33:13;11.90;99.99
72326;DHT22;60278;47.980;18.780;2022-10-31T21:36:44;11.90;99.99
72326;DHT22;60278;47.980;18.780;2022-10-31T21:40:15;11.84;99.99
72326;DHT22;60278;47.980;18.780;2022-10-31T21:43:48;11.89;99.99
72326;DHT22;60278;47.980;18.780;2022-10-31T21:47:19;11.89;99.99
72326;DHT22;60278;47.980;18.780;2022-10-31T21:50:50;11.98;99.99
72326;DHT22;60278;47.980;18.780;2022-10-31T21:54:21;11.93;99.99
72326;DHT22;60278;47.980;18.780;2022-10-31T21:57:59;11.82;99.99
72326;DHT22;60278;47.980;18.780;2022-10-31T22:01:31;11.91;99.99
72326;DHT22;60278;47.980;18.780;2022-10-31T22:05:03;11.94;99.99
72326;DHT22;60278;47.980;18.780;2022-10-31T22:08:34;12.00;99.92
72326;DHT22;60278;47.980;18.780;2022-10-31T22:12:05;12.05;99.55
72326;DHT22;60278;47.980;18.780;2022-10-31T22:15:38;11.98;99.82
72326;DHT22;60278;47.980;18.780;2022-10-31T22:19:11;12.01;99.84
72326;DHT22;60278;47.980;18.780;2022-10-31T22:22:45;11.86;99.99
72326;DHT22;60278;47.980;18.780;2022-10-31T22:26:16;11.77;99.99
72326;DHT22;60278;47.980;18.780;2022-10-31T22:29:47;11.69;99.99
72326;DHT22;60278;47.980;18.780;2022-10-31T22:33:18;11.72;99.99
72326;DHT22;60278;47.980;18.780;2022-10-31T22:36:49;11.67;99.99
72326;DHT22;60278;47.980;18.780;2022-10-31T22:40:20;11.74;99.99
72326;DHT22;60278;47.980;18.780;2022-10-31T22:43:52;11.73;99.99
72326;DHT22;60278;47.980;18.780;2022-10-31T22:47:23;11.72;99.99
72326;DHT22;60278;47.980;18.780;2022-10-31T22:50:55;11.67;99.99
72326;DHT22;60278;47.980;18.780;2022-10-31T22:54:32;11.72;99.99
72326;DHT22;60278;47.980;18.780;2022-10-31T22:58:03;11.73;99.99
72326;DHT22;60278;47.980;18.780;2022-10-31T23:01:34;11.69;99.99
72326;DHT22;60278;47.980;18.780;2022-10-31T23:05:06;11.84;99.91
72326;DHT22;60278;47.980;18.780;2022-10-31T23:08:37;11.77;99.99
72326;DHT22;60278;47.980;18.780;2022-10-31T23:12:09;11.79;99.99
72326;DHT22;60278;47.980;18.780;2022-10-31T23:15:58;11.83;99.99
72326;DHT22;60278;47.980;18.780;2022-10-31T23:19:29;11.91;99.66
72326;DHT22;60278;47.980;18.780;2022-10-31T23:23:00;11.84;99.56
72326;DHT22;60278;47.980;18.780;2022-10-31T23:26:31;11.84;99.60
72326;DHT22;60278;47.980;18.780;2022-10-31T23:30:20;11.79;99.81
72326;DHT22;60278;47.980;18.780;2022-10-31T23:33:51;11.84;99.81
72326;DHT22;60278;47.980;18.780;2022-10-31T23:37:24;11.83;99.78
72326;DHT22;60278;47.980;18.780;2022-10-31T23:40:56;11.86;99.88
72326;DHT22;60278;47.980;18.780;2022-10-31T23:44:27;11.97;99.27
72326;DHT22;60278;47.980;18.780;2022-10-31T23:47:58;11.84;99.49
72326;DHT22;60278;47.980;18.780;2022-10-31T23:51:29;11.87;99.71
72326;DHT22;60278;47.980;18.780;2022-10-31T23:55:00;11.84;99.30
72326;DHT22;60278;47.980;18.780;2022-10-31T23:58:31;11.83;99.61
